createdAt,value
2018-08-17T00:01:04.878Z,99330.73
2018-08-17T00:03:32.465Z,99332.69
2018-08-17T00:06:00.080Z,99324.55
2018-08-17T00:08:27.618Z,99323.64
2018-08-17T00:10:55.140Z,99326.62
2018-08-17T00:13:22.852Z,99323.22
2018-08-17T00:15:50.426Z,99333.56
2018-08-17T00:18:18.005Z,99328.88
2018-08-17T00:20:45.758Z,99326.56
2018-08-17T00:23:13.430Z,99326.17
2018-08-17T00:25:41.031Z,99323.16
2018-08-17T00:28:09.839Z,99319.85
2018-08-17T00:30:37.785Z,99314.58
2018-08-17T00:33:05.807Z,99315.17
2018-08-17T00:35:35.930Z,99316.38
2018-08-17T00:38:03.626Z,99311.79
2018-08-17T00:40:31.497Z,99315.23
2018-08-17T00:42:59.382Z,99312.64
2018-08-17T00:45:27.019Z,99312.02
2018-08-17T00:47:55.023Z,99314.64
2018-08-17T00:50:22.854Z,99314.02
2018-08-17T00:52:50.505Z,99313.52
2018-08-17T00:55:18.176Z,99315.47
2018-08-17T00:57:45.968Z,99316.44
2018-08-17T01:00:13.887Z,99320.53
2018-08-17T01:02:41.530Z,99313.57
2018-08-17T01:05:09.527Z,99316.48
2018-08-17T01:07:37.133Z,99319.80
2018-08-17T01:10:05.221Z,99319.17
2018-08-17T01:12:32.939Z,99317.95
2018-08-17T01:15:00.650Z,99325.42
2018-08-17T01:17:28.309Z,99328.48
2018-08-17T01:19:56.106Z,99325.89
2018-08-17T01:22:23.966Z,99329.20
2018-08-17T01:24:51.653Z,99329.00
2018-08-17T01:27:20.742Z,99330.75
2018-08-17T01:29:48.638Z,99333.23
2018-08-17T01:32:16.469Z,99338.58
2018-08-17T01:34:44.369Z,99333.19
2018-08-17T01:37:12.554Z,99333.98
2018-08-17T01:39:40.389Z,99336.23
2018-08-17T01:42:08.362Z,99338.25
2018-08-17T01:44:36.112Z,99339.59
2018-08-17T01:47:03.952Z,99344.61
2018-08-17T01:49:31.564Z,99350.94
2018-08-17T01:51:59.258Z,99353.23
2018-08-17T01:54:26.779Z,99346.70
2018-08-17T01:56:54.373Z,99351.59
2018-08-17T01:59:21.910Z,99355.77
2018-08-17T02:01:49.492Z,99357.20
2018-08-17T02:04:17.035Z,99355.92
2018-08-17T02:06:44.618Z,99358.25
2018-08-17T02:09:12.157Z,99359.86
2018-08-17T02:11:39.725Z,99365.44
2018-08-17T02:14:07.269Z,99374.36
2018-08-17T02:16:34.846Z,99378.23
2018-08-17T02:19:02.437Z,99376.44
2018-08-17T02:21:30.058Z,99387.05
2018-08-17T02:23:57.614Z,99385.58
2018-08-17T02:26:25.207Z,99388.25
2018-08-17T02:28:52.745Z,99396.35
2018-08-17T02:31:20.496Z,99401.76
2018-08-17T02:33:48.037Z,99402.86
2018-08-17T02:36:15.729Z,99403.02
2018-08-17T02:38:43.341Z,99413.12
2018-08-17T02:41:11.039Z,99411.16
2018-08-17T02:43:38.722Z,99415.48
2018-08-17T02:46:06.275Z,99427.91
2018-08-17T02:48:33.905Z,99437.67
2018-08-17T02:51:01.518Z,99436.97
2018-08-17T02:53:29.089Z,99452.78
2018-08-17T02:56:03.541Z,99444.67
2018-08-17T03:03:01.425Z,99449.38
2018-08-17T03:05:28.966Z,99447.45
2018-08-17T03:07:56.515Z,99454.14
2018-08-17T03:10:24.097Z,99452.68
2018-08-17T03:12:51.700Z,99456.02
2018-08-17T03:15:19.264Z,99465.69
2018-08-17T03:17:46.843Z,99471.33
2018-08-17T03:20:14.606Z,99458.36
2018-08-17T03:22:42.182Z,99447.77
2018-08-17T03:25:09.784Z,99440.52
2018-08-17T03:27:37.326Z,99429.17
2018-08-17T03:30:04.877Z,99431.53
2018-08-17T03:32:32.472Z,99446.28
2018-08-17T03:35:00.051Z,99454.86
2018-08-17T03:37:27.742Z,99451.12
2018-08-17T03:39:55.299Z,99449.02
2018-08-17T03:42:23.014Z,99435.03
2018-08-17T03:44:56.471Z,99434.09
2018-08-17T03:47:24.044Z,99442.63
2018-08-17T03:49:51.742Z,99443.86
2018-08-17T03:52:19.289Z,99440.62
2018-08-17T03:54:47.704Z,99430.58
2018-08-17T03:57:15.301Z,99433.16
2018-08-17T03:59:42.864Z,99443.46
2018-08-17T04:02:10.636Z,99443.41
2018-08-17T04:04:38.427Z,99438.91
2018-08-17T04:07:05.957Z,99447.23
2018-08-17T04:09:33.659Z,99447.55
2018-08-17T04:12:01.195Z,99454.14
2018-08-17T04:14:28.845Z,99461.84
2018-08-17T04:16:56.409Z,99465.94
2018-08-17T04:19:24.117Z,99475.49
2018-08-17T04:21:51.668Z,99469.70
2018-08-17T04:24:19.231Z,99466.89
2018-08-17T04:26:47.039Z,99473.06
2018-08-17T04:29:14.581Z,99478.54
2018-08-17T04:31:42.200Z,99480.88
2018-08-17T04:34:12.599Z,99489.41
2018-08-17T04:36:40.247Z,99502.12
2018-08-17T04:39:08.440Z,99493.13
2018-08-17T04:41:36.571Z,99502.86
2018-08-17T04:44:04.151Z,99491.13
2018-08-17T04:46:32.716Z,99492.61
2018-08-17T04:49:00.329Z,99505.31
2018-08-17T04:51:27.880Z,99503.09
2018-08-17T04:53:55.686Z,99508.58
2018-08-17T04:56:23.243Z,99513.60
2018-08-17T04:58:50.814Z,99523.81
2018-08-17T05:01:19.534Z,99532.35
2018-08-17T05:03:47.085Z,99543.46
2018-08-17T05:06:14.674Z,99546.52
2018-08-17T05:08:42.219Z,99545.20
2018-08-17T05:11:09.851Z,99543.63
2018-08-17T05:13:37.395Z,99545.84
2018-08-17T05:16:04.976Z,99557.61
2018-08-17T05:18:32.606Z,99576.88
2018-08-17T05:21:00.330Z,99589.20
2018-08-17T05:23:27.922Z,99597.25
2018-08-17T05:25:55.539Z,99602.55
2018-08-17T05:28:23.093Z,99595.31
2018-08-17T05:30:50.662Z,99597.69
2018-08-17T05:33:18.214Z,99607.64
2018-08-17T05:35:45.791Z,99599.69
2018-08-17T05:38:13.532Z,99603.45
2018-08-17T05:40:41.287Z,99605.31
2018-08-17T05:43:09.192Z,99605.36
2018-08-17T05:45:36.816Z,99612.65
2018-08-17T05:48:04.361Z,99606.61
2018-08-17T05:50:31.886Z,99608.01
2018-08-17T05:52:59.519Z,99604.66
2018-08-17T05:55:27.242Z,99602.98
2018-08-17T05:57:54.780Z,99600.06
2018-08-17T06:00:22.349Z,99600.78
2018-08-17T06:02:49.900Z,99604.61
2018-08-17T06:05:19.629Z,99605.52
2018-08-17T06:07:47.181Z,99600.77
2018-08-17T06:10:14.796Z,99600.55
2018-08-17T06:12:44.416Z,99613.98
2018-08-17T06:15:12.127Z,99617.18
2018-08-17T06:17:39.697Z,99640.03
2018-08-17T06:20:07.251Z,99644.55
2018-08-17T06:22:34.891Z,99655.49
2018-08-17T06:25:02.645Z,99679.25
2018-08-17T06:27:30.316Z,99678.31
2018-08-17T06:29:57.907Z,99674.14
2018-08-17T06:32:25.571Z,99660.83
2018-08-17T06:34:53.348Z,99664.54
2018-08-17T06:37:21.180Z,99677.61
2018-08-17T06:39:48.905Z,99676.22
2018-08-17T06:42:16.478Z,99673.40
2018-08-17T06:44:44.061Z,99671.35
2018-08-17T06:47:11.612Z,99671.05
2018-08-17T06:49:39.199Z,99659.75
2018-08-17T06:52:06.767Z,99652.55
2018-08-17T06:54:34.380Z,99650.31
2018-08-17T06:57:01.975Z,99670.81
2018-08-17T06:59:29.495Z,99670.81
2018-08-17T07:01:57.076Z,99679.08
2018-08-17T07:04:24.686Z,99678.97
2018-08-17T07:06:52.288Z,99673.41
2018-08-17T07:09:19.955Z,99679.95
2018-08-17T07:11:47.457Z,99668.05
2018-08-17T07:14:14.975Z,99652.06
2018-08-17T07:16:42.637Z,99635.50
2018-08-17T07:19:15.595Z,99623.50
2018-08-17T07:21:43.221Z,99609.89
2018-08-17T07:24:10.756Z,99594.77
2018-08-17T07:26:39.557Z,99606.58
2018-08-17T07:29:07.100Z,99590.66
2018-08-17T07:31:34.667Z,99604.25
2018-08-17T07:34:02.220Z,99599.11
2018-08-17T07:36:30.906Z,99593.20
2018-08-17T07:38:58.452Z,99597.87
2018-08-17T07:41:26.031Z,99595.05
2018-08-17T07:43:53.594Z,99600.17
2018-08-17T07:46:22.233Z,99606.16
2018-08-17T07:48:49.825Z,99599.28
2018-08-17T07:51:17.372Z,99594.25
2018-08-17T07:53:44.934Z,99586.00
2018-08-17T07:56:12.710Z,99582.97
2018-08-17T07:58:40.271Z,99577.73
2018-08-17T08:01:07.792Z,99574.77
2018-08-17T08:03:35.361Z,99566.95
2018-08-17T08:06:06.822Z,99572.73
2018-08-17T08:08:34.394Z,99577.06
2018-08-17T08:11:01.970Z,99585.83
2018-08-17T08:13:29.518Z,99592.06
2018-08-17T08:15:57.095Z,99602.10
2018-08-17T08:18:24.788Z,99610.09
2018-08-17T08:20:52.615Z,99601.79
2018-08-17T08:23:20.287Z,99610.68
2018-08-17T08:25:47.845Z,99610.31
2018-08-17T08:28:15.548Z,99609.45
2018-08-17T08:30:46.770Z,99610.72
2018-08-17T08:33:14.307Z,99615.97
2018-08-17T08:35:41.935Z,99618.23
2018-08-17T08:38:09.637Z,99623.22
2018-08-17T08:40:37.167Z,99634.88
2018-08-17T08:43:04.748Z,99642.08
2018-08-17T08:45:32.392Z,99657.62
2018-08-17T08:47:59.883Z,99659.80
2018-08-17T08:50:27.656Z,99662.44
2018-08-17T08:52:55.358Z,99659.89
2018-08-17T08:55:24.008Z,99661.24
2018-08-17T08:57:51.824Z,99658.56
2018-08-17T09:00:19.385Z,99663.98
2018-08-17T09:02:46.975Z,99659.59
2018-08-17T09:05:14.507Z,99664.52
2018-08-17T09:07:42.102Z,99671.34
2018-08-17T09:10:09.719Z,99680.15
2018-08-17T09:12:39.339Z,99683.72
2018-08-17T09:15:06.919Z,99683.13
2018-08-17T09:17:34.507Z,99693.24
2018-08-17T09:20:02.077Z,99698.82
2018-08-17T09:22:29.777Z,99701.30
2018-08-17T09:24:57.374Z,99704.37
2018-08-17T09:27:26.285Z,99706.83
2018-08-17T09:29:54.000Z,99702.02
2018-08-17T09:32:21.597Z,99705.22
2018-08-17T09:34:49.188Z,99703.23
2018-08-17T09:37:16.796Z,99710.70
2018-08-17T09:39:44.393Z,99712.39
2018-08-17T09:42:12.010Z,99715.23
2018-08-17T09:44:39.522Z,99717.30
2018-08-17T09:47:07.259Z,99713.13
2018-08-17T09:49:35.052Z,99719.63
2018-08-17T09:52:02.965Z,99724.11
2018-08-17T09:54:32.350Z,99715.80
2018-08-17T09:57:00.085Z,99723.41
2018-08-17T09:59:27.755Z,99719.59
2018-08-17T10:02:12.290Z,99715.47
2018-08-17T10:04:39.907Z,99713.47
2018-08-17T10:07:07.680Z,99715.25
2018-08-17T10:09:35.294Z,99714.50
2018-08-17T10:12:02.924Z,99710.75
2018-08-17T10:14:30.975Z,99712.80
2018-08-17T10:16:58.590Z,99723.53
2018-08-17T10:19:26.239Z,99714.49
2018-08-17T10:21:54.331Z,99717.36
2018-08-17T10:24:21.824Z,99716.32
2018-08-17T10:26:49.512Z,99726.94
2018-08-17T10:29:17.227Z,99721.76
2018-08-17T10:31:44.949Z,99729.02
2018-08-17T10:34:12.548Z,99727.08
2018-08-17T10:36:40.260Z,99738.54
2018-08-17T10:39:08.039Z,99736.92
2018-08-17T10:41:35.747Z,99743.13
2018-08-17T10:44:03.450Z,99742.73
2018-08-17T10:46:31.018Z,99747.38
2018-08-17T10:49:02.965Z,99740.41
2018-08-17T10:51:30.812Z,99737.77
2018-08-17T10:53:58.556Z,99732.05
2018-08-17T10:56:26.119Z,99737.52
2018-08-17T10:58:53.925Z,99734.66
2018-08-17T11:01:21.565Z,99735.29
2018-08-17T11:03:49.405Z,99731.41
2018-08-17T11:06:17.263Z,99727.31
2018-08-17T11:08:45.384Z,99727.99
2018-08-17T11:11:13.679Z,99733.84
2018-08-17T11:13:42.557Z,99738.33
2018-08-17T11:16:10.450Z,99739.23
2018-08-17T11:18:38.016Z,99746.00
2018-08-17T11:21:05.699Z,99744.74
2018-08-17T11:23:33.333Z,99747.51
2018-08-17T11:26:01.145Z,99747.50
2018-08-17T11:28:28.930Z,99750.66
2018-08-17T11:30:56.485Z,99747.63
2018-08-17T11:33:24.658Z,99761.36
2018-08-17T11:35:52.257Z,99755.63
2018-08-17T11:38:20.125Z,99758.81
2018-08-17T11:40:49.688Z,99754.69
2018-08-17T11:43:18.262Z,99762.64
2018-08-17T11:45:46.009Z,99760.63
2018-08-17T11:48:13.816Z,99768.84
2018-08-17T11:50:41.418Z,99768.41
2018-08-17T11:53:09.311Z,99777.79
2018-08-17T11:55:36.850Z,99779.50
2018-08-17T11:58:04.743Z,99775.41
2018-08-17T12:00:32.288Z,99777.05
2018-08-17T12:02:59.862Z,99786.94
2018-08-17T12:05:27.524Z,99790.72
2018-08-17T12:07:55.145Z,99787.80
2018-08-17T12:10:22.707Z,99786.81
2018-08-17T12:12:50.329Z,99793.28
2018-08-17T12:15:17.987Z,99791.64
2018-08-17T12:17:46.442Z,99793.99
2018-08-17T12:20:15.001Z,99799.20
2018-08-17T12:22:43.017Z,99798.27
2018-08-17T12:25:10.598Z,99793.14
2018-08-17T12:27:38.192Z,99803.44
2018-08-17T12:30:05.795Z,99803.53
2018-08-17T12:32:33.334Z,99807.53
2018-08-17T12:35:00.960Z,99806.34
2018-08-17T12:37:28.521Z,99810.39
2018-08-17T12:39:56.148Z,99817.17
2018-08-17T12:42:23.884Z,99808.94
2018-08-17T12:44:51.461Z,99807.62
2018-08-17T12:47:20.105Z,99811.52
2018-08-17T12:49:48.222Z,99807.52
2018-08-17T12:52:16.129Z,99804.83
2018-08-17T12:54:44.446Z,99808.30
2018-08-17T12:57:12.606Z,99802.35
2018-08-17T12:59:41.190Z,99808.02
2018-08-17T13:02:09.179Z,99809.23
2018-08-17T13:04:36.971Z,99801.88
2018-08-17T13:07:04.619Z,99811.96
2018-08-17T13:09:32.585Z,99811.52
2018-08-17T13:12:01.472Z,99812.77
2018-08-17T13:14:29.836Z,99810.25
2018-08-17T13:16:57.459Z,99805.30
2018-08-17T13:19:25.358Z,99810.98
2018-08-17T13:21:52.954Z,99814.94
2018-08-17T13:24:20.777Z,99820.45
2018-08-17T13:26:48.554Z,99816.09
2018-08-17T13:29:16.479Z,99816.78
2018-08-17T13:31:44.220Z,99816.22
2018-08-17T13:34:12.355Z,99810.84
2018-08-17T13:36:39.952Z,99813.16
2018-08-17T13:39:08.592Z,99809.13
2018-08-17T13:41:36.496Z,99809.89
2018-08-17T13:44:04.704Z,99809.55
2018-08-17T13:46:32.614Z,99806.14
2018-08-17T13:49:01.031Z,99809.13
2018-08-17T13:51:28.944Z,99806.70
2018-08-17T13:53:56.610Z,99800.86
2018-08-17T13:56:24.301Z,99799.61
2018-08-17T13:58:52.191Z,99801.27
2018-08-17T14:01:19.973Z,99793.65
2018-08-17T14:03:47.761Z,99793.61
2018-08-17T14:06:15.287Z,99799.58
2018-08-17T14:08:42.893Z,99804.77
2018-08-17T14:11:10.412Z,99798.73
2018-08-17T14:13:38.141Z,99795.78
2018-08-17T14:16:05.843Z,99794.03
2018-08-17T14:18:33.417Z,99801.40
2018-08-17T14:21:01.158Z,99794.97
2018-08-17T14:23:28.741Z,99793.28
2018-08-17T14:25:56.302Z,99793.41
2018-08-17T14:28:23.842Z,99797.78
2018-08-17T14:30:51.509Z,99798.76
2018-08-17T14:33:19.085Z,99794.09
2018-08-17T14:35:46.653Z,99795.55
2018-08-17T14:38:14.210Z,99800.74
2018-08-17T14:40:41.800Z,99800.25
2018-08-17T14:43:09.413Z,99795.86
2018-08-17T14:45:36.960Z,99794.53
2018-08-17T14:48:04.559Z,99793.39
2018-08-17T14:50:32.075Z,99796.73
2018-08-17T14:52:59.696Z,99804.48
2018-08-17T14:55:27.289Z,99802.48
2018-08-17T14:57:54.888Z,99801.32
2018-08-17T15:00:22.788Z,99801.89
2018-08-17T15:02:51.507Z,99798.48
2018-08-17T15:05:19.341Z,99797.57
2018-08-17T15:07:47.047Z,99790.30
2018-08-17T15:10:14.602Z,99789.66
2018-08-17T15:12:42.745Z,99796.53
2018-08-17T15:15:10.506Z,99793.30
2018-08-17T15:17:38.070Z,99793.33
2018-08-17T15:20:05.653Z,99784.48
2018-08-17T15:22:33.498Z,99788.66
2018-08-17T15:25:01.302Z,99786.85
2018-08-17T15:27:29.136Z,99789.20
2018-08-17T15:29:56.726Z,99790.24
2018-08-17T15:32:24.364Z,99783.67
2018-08-17T15:34:52.241Z,99791.80
2018-08-17T15:37:19.925Z,99781.97
2018-08-17T15:39:47.520Z,99787.70
2018-08-17T15:42:15.058Z,99780.86
2018-08-17T15:44:42.640Z,99783.64
2018-08-17T15:47:10.170Z,99787.70
2018-08-17T15:49:39.053Z,99785.16
2018-08-17T15:52:06.602Z,99784.75
2018-08-17T15:54:34.417Z,99776.97
2018-08-17T15:57:02.024Z,99781.66
2018-08-17T15:59:30.302Z,99780.52
2018-08-17T16:01:58.554Z,99787.24
2018-08-17T16:04:26.537Z,99783.84
2018-08-17T16:06:54.638Z,99785.73
2018-08-17T16:09:22.313Z,99788.37
2018-08-17T16:11:50.059Z,99795.29
2018-08-17T16:14:17.779Z,99785.28
2018-08-17T16:16:45.556Z,99779.20
2018-08-17T16:19:13.074Z,99787.48
2018-08-17T16:21:40.785Z,99785.48
2018-08-17T16:24:08.325Z,99783.34
2018-08-17T16:26:35.865Z,99784.53
2018-08-17T16:29:03.486Z,99783.42
2018-08-17T16:31:31.058Z,99785.26
2018-08-17T16:33:58.632Z,99786.50
2018-08-17T16:36:26.190Z,99792.85
2018-08-17T16:38:53.717Z,99788.42
2018-08-17T16:41:21.359Z,99786.22
2018-08-17T16:43:48.875Z,99790.95
2018-08-17T16:46:16.501Z,99794.88
2018-08-17T16:48:44.085Z,99790.95
2018-08-17T16:51:11.769Z,99787.93
2018-08-17T16:53:39.362Z,99793.03
2018-08-17T16:56:07.217Z,99795.19
2018-08-17T16:58:35.195Z,99799.88
2018-08-17T17:01:03.105Z,99794.84
2018-08-17T17:03:30.685Z,99797.38
2018-08-17T17:05:58.252Z,99794.59
2018-08-17T17:10:53.082Z,99793.70
2018-08-17T17:13:20.869Z,99794.03
2018-08-17T17:15:48.516Z,99796.53
2018-08-17T17:18:17.217Z,99796.81
2018-08-17T17:20:44.827Z,99796.77
2018-08-17T17:23:12.367Z,99801.31
2018-08-17T17:25:39.941Z,99797.11
2018-08-17T17:28:07.467Z,99800.61
2018-08-17T17:30:35.034Z,99792.17
2018-08-17T17:33:07.233Z,99800.73
2018-08-17T17:35:34.820Z,99796.47
2018-08-17T17:38:02.421Z,99803.09
2018-08-17T17:40:30.096Z,99801.97
2018-08-17T17:42:57.649Z,99804.44
2018-08-17T17:45:25.208Z,99801.28
2018-08-17T17:47:52.814Z,99800.71
2018-08-17T17:50:20.341Z,99799.22
2018-08-17T17:52:48.445Z,99793.26
2018-08-17T17:55:17.075Z,99797.47
2018-08-17T17:57:44.656Z,99803.73
2018-08-17T18:00:12.226Z,99806.55
2018-08-17T18:02:39.790Z,99804.28
2018-08-17T18:05:07.369Z,99806.78
2018-08-17T18:07:34.889Z,99813.91
2018-08-17T18:10:02.427Z,99809.58
2018-08-17T18:12:29.979Z,99812.34
2018-08-17T18:14:57.717Z,99809.50
2018-08-17T18:17:25.264Z,99804.00
2018-08-17T18:19:52.840Z,99813.89
2018-08-17T18:22:20.394Z,99813.52
2018-08-17T18:24:48.331Z,99817.63
2018-08-17T18:27:15.916Z,99820.17
2018-08-17T18:29:43.492Z,99820.21
2018-08-17T18:32:11.202Z,99823.94
2018-08-17T18:34:38.878Z,99827.00
2018-08-17T18:37:06.583Z,99829.70
2018-08-17T18:39:34.090Z,99834.31
2018-08-17T18:42:01.672Z,99838.32
2018-08-17T18:44:29.207Z,99841.42
2018-08-17T18:46:56.841Z,99834.66
2018-08-17T18:49:24.363Z,99840.08
2018-08-17T18:51:51.980Z,99842.93
2018-08-17T18:54:19.504Z,99850.56
2018-08-17T18:56:47.062Z,99849.58
2018-08-17T18:59:14.671Z,99851.51
2018-08-17T19:01:42.195Z,99855.30
2018-08-17T19:04:09.769Z,99860.44
2018-08-17T19:06:37.341Z,99865.92
2018-08-17T19:09:04.859Z,99862.10
2018-08-17T19:11:32.429Z,99868.62
2018-08-17T19:14:00.015Z,99870.63
2018-08-17T19:16:27.544Z,99880.42
2018-08-17T19:18:55.122Z,99879.25
2018-08-17T19:21:22.675Z,99882.56
2018-08-17T19:23:50.225Z,99886.28
2018-08-17T19:26:17.799Z,99886.64
2018-08-17T19:28:45.387Z,99891.84
2018-08-17T19:31:12.919Z,99895.04
2018-08-17T19:33:40.472Z,99895.63
2018-08-17T19:36:07.990Z,99891.89
2018-08-17T19:38:35.621Z,99898.95
2018-08-17T19:41:03.364Z,99898.08
2018-08-17T19:43:30.955Z,99897.89
2018-08-17T19:45:58.576Z,99898.45
2018-08-17T19:48:26.068Z,99901.08
2018-08-17T19:50:53.842Z,99902.34
2018-08-17T19:53:21.356Z,99903.19
2018-08-17T19:55:48.950Z,99909.49
2018-08-17T19:58:16.541Z,99911.90
2018-08-17T20:00:44.272Z,99914.63
2018-08-17T20:03:12.069Z,99919.10
2018-08-17T20:05:41.697Z,99919.36
2018-08-17T20:08:09.297Z,99918.67
2018-08-17T20:10:36.850Z,99918.33
2018-08-17T20:13:04.406Z,99922.53
2018-08-17T20:15:31.982Z,99923.82
2018-08-17T20:17:59.592Z,99924.75
2018-08-17T20:20:27.372Z,99928.20
2018-08-17T20:22:54.896Z,99928.22
2018-08-17T20:25:22.533Z,99934.96
2018-08-17T20:27:50.121Z,99924.07
2018-08-17T20:30:17.779Z,99929.98
2018-08-17T20:32:45.589Z,99928.89
2018-08-17T20:35:13.141Z,99930.98
2018-08-17T20:37:40.692Z,99939.58
2018-08-17T20:40:08.288Z,99939.69
2018-08-17T20:42:35.807Z,99942.48
2018-08-17T20:45:03.496Z,99940.53
2018-08-17T20:47:31.103Z,99939.47
2018-08-17T20:49:58.670Z,99937.23
2018-08-17T20:52:27.367Z,99943.16
2018-08-17T20:54:54.958Z,99931.40
2018-08-17T20:57:22.528Z,99936.36
2018-08-17T20:59:50.108Z,99940.06
2018-08-17T21:02:17.724Z,99939.24
2018-08-17T21:04:45.405Z,99935.91
2018-08-17T21:07:12.981Z,99944.69
2018-08-17T21:09:40.524Z,99940.50
2018-08-17T21:12:08.319Z,99953.97
2018-08-17T21:14:36.005Z,99944.23
2018-08-17T21:17:03.577Z,99947.49
2018-08-17T21:19:31.159Z,99947.81
2018-08-17T21:21:58.687Z,99949.03
2018-08-17T21:24:26.281Z,99949.84
2018-08-17T21:26:53.799Z,99947.14
2018-08-17T21:29:21.633Z,99958.44
2018-08-17T21:31:49.048Z,99950.20
2018-08-17T21:34:16.603Z,99949.77
2018-08-17T21:36:44.195Z,99956.72
2018-08-17T21:39:11.837Z,99954.03
2018-08-17T21:41:39.387Z,99956.84
2018-08-17T21:44:06.978Z,99959.88
2018-08-17T21:46:34.524Z,99957.00
2018-08-17T21:49:02.053Z,99962.77
2018-08-17T21:51:29.616Z,99969.03
2018-08-17T21:53:57.154Z,99965.28
2018-08-17T21:56:24.740Z,99960.82
2018-08-17T21:58:52.425Z,99965.57
2018-08-17T22:01:20.012Z,99967.77
2018-08-17T22:03:47.634Z,99963.08
2018-08-17T22:06:15.236Z,99970.45
2018-08-17T22:08:42.924Z,99968.11
2018-08-17T22:11:10.527Z,99971.41
2018-08-17T22:13:38.127Z,99974.51
2018-08-17T22:16:05.692Z,99972.13
2018-08-17T22:18:33.287Z,99971.91
2018-08-17T22:21:00.831Z,99968.48
2018-08-17T22:23:28.428Z,99975.94
2018-08-17T22:25:55.995Z,99977.94
2018-08-17T22:28:23.552Z,99973.60
2018-08-17T22:30:51.079Z,99976.91
2018-08-17T22:33:18.650Z,99980.27
2018-08-17T22:35:46.235Z,99981.62
2018-08-17T22:38:13.823Z,99976.80
2018-08-17T22:40:41.400Z,99983.88
2018-08-17T22:43:08.926Z,99981.94
2018-08-17T22:45:36.667Z,99980.94
2018-08-17T22:48:04.214Z,99982.23
2018-08-17T22:50:31.792Z,99983.89
2018-08-17T22:52:59.380Z,99999.73
2018-08-17T22:55:26.975Z,99992.84
2018-08-17T22:57:54.545Z,100002.31
2018-08-17T23:00:22.140Z,99999.05
2018-08-17T23:02:49.676Z,100002.31
2018-08-17T23:05:17.255Z,99997.98
2018-08-17T23:07:44.781Z,100001.67
2018-08-17T23:10:12.343Z,100005.68
2018-08-17T23:12:39.924Z,100003.79
2018-08-17T23:15:07.493Z,100005.74
2018-08-17T23:17:35.087Z,100008.08
2018-08-17T23:20:02.670Z,100010.88
2018-08-17T23:22:30.219Z,100014.14
2018-08-17T23:24:57.740Z,100010.98
2018-08-17T23:27:25.311Z,100009.98
2018-08-17T23:29:52.845Z,100008.83
2018-08-17T23:32:20.561Z,100006.18
2018-08-17T23:34:48.420Z,100006.95
2018-08-17T23:37:16.008Z,100002.27
2018-08-17T23:39:43.583Z,100006.28
2018-08-17T23:42:11.117Z,100004.52
2018-08-17T23:44:38.707Z,100015.16
2018-08-17T23:47:06.323Z,100020.97
2018-08-17T23:49:33.925Z,100014.17
2018-08-17T23:52:01.466Z,100018.38
2018-08-17T23:54:29.034Z,100014.45
2018-08-17T23:56:56.627Z,100017.11
2018-08-17T23:59:24.181Z,100007.94
